Fowler, Ohio
Current Conditions -  °F | °C
As of 7:51 AM on Saturday 20 Dec 2014 (Local Time) from KYNG Reporting Station
Overcast Overcast  
Wind Chill: 27°   Ceiling: 2100
Heat Index: 27°   Visibility: 10mi
Dew Point: 19°   Wind: 3mph
Humidity: 72%   Direction: 340°NNW
Pressure: 30.26"   Gusts: NA
Location:  41.31°N, 80.66°W
Report Text: KYNG 201251Z 34003KT 10SM OVC021 M03/M07 A3026 RMK AO2 SLP264 T10281072
Loading
Personal Weather Stations






























Interactive Weather Map New forecast layout! Learn more

10-Day Weather Forecast

Advertisements
Track Severe Weather on mobile